createdAt,value
2023-02-12T00:01:40.636Z,0.26
2023-02-12T00:04:09.023Z,0.26
2023-02-12T00:06:38.823Z,0.25
2023-02-12T00:09:07.002Z,0.25
2023-02-12T00:11:35.176Z,0.26
2023-02-12T00:14:05.260Z,0.26
2023-02-12T00:16:33.577Z,0.26
2023-02-12T00:19:01.739Z,0.28
2023-02-12T00:21:30.019Z,0.29
2023-02-12T00:23:58.836Z,0.31
2023-02-12T00:26:26.982Z,0.33
2023-02-12T00:28:56.093Z,0.36
2023-02-12T00:31:29.000Z,0.38
2023-02-12T00:34:00.816Z,0.40
2023-02-12T00:36:31.421Z,0.40
2023-02-12T00:39:01.102Z,0.44
2023-02-12T00:41:29.890Z,0.46
2023-02-12T00:43:58.327Z,0.50
2023-02-12T00:46:27.068Z,0.51
2023-02-12T00:48:55.500Z,0.51
2023-02-12T00:51:23.663Z,0.53
2023-02-12T00:53:51.942Z,0.55
2023-02-12T00:56:20.528Z,0.59
2023-02-12T00:58:51.076Z,0.64
2023-02-12T01:01:19.404Z,0.71
2023-02-12T01:03:48.122Z,0.77
2023-02-12T01:06:16.393Z,0.84
2023-02-12T01:08:44.669Z,0.94
2023-02-12T01:11:13.977Z,1.04
2023-02-12T01:13:42.147Z,1.12
2023-02-12T01:16:16.667Z,1.16
2023-02-12T01:18:45.455Z,1.27
2023-02-12T01:21:31.241Z,1.37
2023-02-12T01:24:01.104Z,1.37
2023-02-12T01:26:30.768Z,1.44
2023-02-12T01:29:03.635Z,1.57
2023-02-12T01:31:42.968Z,1.59
2023-02-12T01:34:12.185Z,1.61
2023-02-12T01:36:40.559Z,1.68
2023-02-12T01:39:10.877Z,1.76
2023-02-12T01:41:44.381Z,1.80
2023-02-12T01:44:28.531Z,1.84
2023-02-12T01:47:01.206Z,1.88
2023-02-12T01:49:29.582Z,1.89
2023-02-12T01:52:23.869Z,1.91
2023-02-12T01:54:57.101Z,1.92
2023-02-12T01:57:28.845Z,1.96
2023-02-12T02:00:00.464Z,1.97
2023-02-12T02:02:29.260Z,1.93
2023-02-12T02:05:03.974Z,1.88
2023-02-12T02:07:32.986Z,1.85
2023-02-12T02:10:02.792Z,1.82
2023-02-12T02:12:50.222Z,1.81
2023-02-12T02:15:18.491Z,1.79
2023-02-12T02:18:12.983Z,1.78
2023-02-12T02:21:03.787Z,1.75
2023-02-12T02:23:35.028Z,1.75
2023-02-12T02:26:40.682Z,1.74
2023-02-12T02:29:18.071Z,1.70
2023-02-12T02:32:00.909Z,1.69
2023-02-12T02:34:47.600Z,1.68
2023-02-12T02:37:19.049Z,1.66
2023-02-12T02:40:06.468Z,1.62
2023-02-12T02:42:44.338Z,1.60
2023-02-12T02:45:17.886Z,1.61
2023-02-12T02:47:58.851Z,1.61
2023-02-12T02:50:30.913Z,1.61
2023-02-12T02:53:09.714Z,1.62
2023-02-12T02:55:44.095Z,1.62
2023-02-12T02:58:18.803Z,1.61
2023-02-12T03:01:02.554Z,1.59
2023-02-12T03:03:37.070Z,1.58
2023-02-12T03:06:22.545Z,1.56
2023-02-12T03:08:57.151Z,1.53
2023-02-12T03:11:31.688Z,1.51
2023-02-12T03:14:05.264Z,1.50
2023-02-12T03:16:43.860Z,1.49
2023-02-12T03:19:23.014Z,1.46
2023-02-12T03:21:55.388Z,1.45
2023-02-12T03:24:39.230Z,1.42
2023-02-12T03:27:17.746Z,1.37
2023-02-12T03:29:46.227Z,1.34
2023-02-12T03:32:48.603Z,1.26
2023-02-12T03:35:22.274Z,1.20
2023-02-12T03:38:04.066Z,1.18
2023-02-12T03:40:43.335Z,1.17
2023-02-12T03:43:17.445Z,1.14
2023-02-12T03:45:54.770Z,1.13
2023-02-12T03:48:46.664Z,1.13
2023-02-12T03:51:25.880Z,1.11
2023-02-12T03:53:57.420Z,1.11
2023-02-12T03:56:49.376Z,1.11
2023-02-12T03:59:18.575Z,1.12
2023-02-12T04:01:49.541Z,1.13
2023-02-12T04:04:18.245Z,1.17
2023-02-12T04:06:49.441Z,1.26
2023-02-12T04:09:18.782Z,1.26
2023-02-12T04:12:02.379Z,1.28
2023-02-12T04:14:47.451Z,1.36
2023-02-12T04:17:36.616Z,1.34
2023-02-12T04:20:15.020Z,1.30
2023-02-12T04:22:54.667Z,1.27
2023-02-12T04:25:59.598Z,1.31
2023-02-12T04:28:53.372Z,1.42
2023-02-12T04:31:28.563Z,1.51
2023-02-12T04:34:10.619Z,1.54
2023-02-12T04:36:49.573Z,1.57
2023-02-12T04:39:23.375Z,1.61
2023-02-12T04:41:52.308Z,1.61
2023-02-12T04:44:29.459Z,1.56
2023-02-12T04:46:58.327Z,1.53
2023-02-12T04:49:27.408Z,1.57
2023-02-12T04:51:55.988Z,1.60
2023-02-12T04:54:24.702Z,1.62
2023-02-12T04:56:52.958Z,1.66
2023-02-12T04:59:21.341Z,1.70
2023-02-12T05:01:49.695Z,1.74
2023-02-12T05:04:18.916Z,1.77
2023-02-12T05:06:47.493Z,1.79
2023-02-12T05:09:18.385Z,1.80
2023-02-12T05:11:46.819Z,1.84
2023-02-12T05:14:15.393Z,1.84
2023-02-12T05:16:43.872Z,1.85
2023-02-12T05:19:12.254Z,1.85
2023-02-12T05:21:40.632Z,1.85
2023-02-12T05:24:09.625Z,1.85
2023-02-12T05:26:38.124Z,1.85
2023-02-12T05:29:06.425Z,1.84
2023-02-12T05:31:34.982Z,1.83
2023-02-12T05:34:03.352Z,1.82
2023-02-12T05:36:31.615Z,1.82
2023-02-12T05:39:03.223Z,1.83
2023-02-12T05:41:35.237Z,1.84
2023-02-12T05:44:05.498Z,1.83
2023-02-12T05:46:33.941Z,1.84
2023-02-12T05:49:02.102Z,1.83
2023-02-12T05:51:32.313Z,1.83
2023-02-12T05:54:03.938Z,1.84
2023-02-12T05:56:38.192Z,1.85
2023-02-12T05:59:12.386Z,1.87
2023-02-12T06:01:43.140Z,1.91
2023-02-12T06:04:15.986Z,1.95
2023-02-12T06:06:44.929Z,2.00
2023-02-12T06:09:14.016Z,2.08
2023-02-12T06:11:43.212Z,2.14
2023-02-12T06:14:15.777Z,2.18
2023-02-12T06:16:48.987Z,2.23
2023-02-12T06:19:17.046Z,2.29
2023-02-12T06:21:45.973Z,2.31
2023-02-12T06:24:16.195Z,2.39
2023-02-12T06:26:45.370Z,2.45
2023-02-12T06:29:13.634Z,2.49
2023-02-12T06:31:42.653Z,2.49
2023-02-12T06:34:13.161Z,2.48
2023-02-12T06:36:44.773Z,2.51
2023-02-12T06:39:16.161Z,2.55
2023-02-12T06:41:45.260Z,2.58
2023-02-12T06:44:13.951Z,2.57
2023-02-12T06:46:42.386Z,2.51
2023-02-12T06:49:12.854Z,2.60
2023-02-12T06:51:41.555Z,2.64
2023-02-12T06:54:18.094Z,2.68
2023-02-12T06:56:46.303Z,2.73
2023-02-12T06:59:16.988Z,2.73
2023-02-12T07:01:45.730Z,2.78
2023-02-12T07:04:14.448Z,2.89
2023-02-12T07:06:42.765Z,3.00
2023-02-12T07:09:11.043Z,3.01
2023-02-12T07:11:39.424Z,3.00
2023-02-12T07:14:07.604Z,3.00
2023-02-12T07:16:35.939Z,3.03
2023-02-12T07:19:04.300Z,3.05
2023-02-12T07:21:33.216Z,3.07
2023-02-12T07:24:01.662Z,3.00
2023-02-12T07:26:29.893Z,2.99
2023-02-12T07:28:59.100Z,2.95
2023-02-12T07:31:27.672Z,2.97
2023-02-12T07:34:00.364Z,2.97
2023-02-12T07:36:33.242Z,3.03
2023-02-12T07:39:01.792Z,3.06
2023-02-12T07:41:33.000Z,3.10
2023-02-12T07:44:07.663Z,3.09
2023-02-12T07:46:48.580Z,3.15
2023-02-12T07:49:19.811Z,3.12
2023-02-12T07:51:51.085Z,3.13
2023-02-12T07:54:19.540Z,3.17
2023-02-12T07:56:48.139Z,3.19
2023-02-12T07:59:18.940Z,3.17
2023-02-12T08:01:50.106Z,3.22
2023-02-12T08:04:21.489Z,3.34
2023-02-12T08:06:53.811Z,3.44
2023-02-12T08:09:25.365Z,3.56
2023-02-12T08:11:54.068Z,3.71
2023-02-12T08:14:23.151Z,3.85
2023-02-12T08:16:55.201Z,3.93
2023-02-12T08:19:26.604Z,3.97
2023-02-12T08:21:57.476Z,3.99
2023-02-12T08:24:26.322Z,3.98
2023-02-12T08:26:56.304Z,3.95
2023-02-12T08:29:28.163Z,3.95
2023-02-12T08:32:04.388Z,3.96
2023-02-12T08:34:35.248Z,4.02
2023-02-12T08:37:07.635Z,4.09
2023-02-12T08:39:36.016Z,4.14
2023-02-12T08:42:04.511Z,4.19
2023-02-12T08:44:33.184Z,4.27
2023-02-12T08:47:01.356Z,4.37
2023-02-12T08:49:30.650Z,4.44
2023-02-12T08:52:03.327Z,4.51
2023-02-12T08:54:32.866Z,4.49
2023-02-12T08:57:03.557Z,4.56
2023-02-12T08:59:32.079Z,4.73
2023-02-12T09:02:01.051Z,4.98
2023-02-12T09:04:30.128Z,5.24
2023-02-12T09:06:58.380Z,5.25
2023-02-12T09:09:27.289Z,5.24
2023-02-12T09:11:55.574Z,5.29
2023-02-12T09:14:24.633Z,5.03
2023-02-12T09:16:54.685Z,5.40
2023-02-12T09:19:23.405Z,6.12
2023-02-12T09:21:56.783Z,6.40
2023-02-12T09:24:27.970Z,6.68
2023-02-12T09:26:57.265Z,6.87
2023-02-12T09:29:25.841Z,7.14
2023-02-12T09:31:54.230Z,7.26
2023-02-12T09:34:22.757Z,7.03
2023-02-12T09:36:51.239Z,6.85
2023-02-12T09:39:19.411Z,6.52
2023-02-12T09:41:56.504Z,6.50
2023-02-12T09:44:40.031Z,7.03
2023-02-12T09:47:27.043Z,7.27
2023-02-12T09:50:01.157Z,7.38
2023-02-12T09:52:30.860Z,7.59
2023-02-12T09:55:00.999Z,7.57
2023-02-12T09:57:36.361Z,7.69
2023-02-12T10:00:14.950Z,7.92
2023-02-12T10:02:43.329Z,7.80
2023-02-12T10:05:35.258Z,7.52
2023-02-12T10:08:43.019Z,7.61
2023-02-12T10:11:34.277Z,7.88
2023-02-12T10:14:11.252Z,7.27
2023-02-12T10:16:54.474Z,7.29
2023-02-12T10:19:47.537Z,7.49
2023-02-12T10:22:57.113Z,7.35
2023-02-12T10:25:45.430Z,7.02
2023-02-12T10:28:21.023Z,7.00
2023-02-12T10:30:55.067Z,6.66
2023-02-12T10:33:31.868Z,6.74
2023-02-12T10:36:05.468Z,7.07
2023-02-12T10:38:42.714Z,7.25
2023-02-12T10:41:14.810Z,7.36
2023-02-12T10:43:43.287Z,7.30
2023-02-12T10:46:20.313Z,7.44
2023-02-12T10:48:54.276Z,7.41
2023-02-12T10:51:34.944Z,7.04
2023-02-12T10:54:33.122Z,7.27
2023-02-12T10:57:08.918Z,7.33
2023-02-12T10:59:37.527Z,7.77
2023-02-12T11:02:22.831Z,7.80
2023-02-12T11:04:52.508Z,7.18
2023-02-12T11:07:22.254Z,6.93
2023-02-12T11:09:52.476Z,6.85
2023-02-12T11:12:48.503Z,6.71
2023-02-12T11:15:21.188Z,6.95
2023-02-12T11:18:26.472Z,6.75
2023-02-12T11:21:00.540Z,6.47
2023-02-12T11:23:39.874Z,6.49
2023-02-12T11:26:20.430Z,6.35
2023-02-12T11:29:24.151Z,6.20
2023-02-12T11:32:04.949Z,6.00
2023-02-12T11:34:33.711Z,5.79
2023-02-12T11:37:17.869Z,5.75
2023-02-12T11:39:48.748Z,5.67
2023-02-12T11:42:24.430Z,5.42
2023-02-12T11:44:56.131Z,5.17
2023-02-12T11:47:28.777Z,5.18
2023-02-12T11:50:02.866Z,5.03
2023-02-12T11:52:37.939Z,4.94
2023-02-12T11:55:27.797Z,4.93
2023-02-12T11:58:18.084Z,4.73
2023-02-12T12:00:59.168Z,4.95
2023-02-12T12:03:40.696Z,5.05
2023-02-12T12:06:37.303Z,5.04
2023-02-12T12:09:27.180Z,5.18
2023-02-12T12:11:58.622Z,5.36
2023-02-12T12:15:08.162Z,5.50
2023-02-12T12:18:19.753Z,5.47
2023-02-12T12:20:58.780Z,5.37
2023-02-12T12:23:40.788Z,5.42
2023-02-12T12:26:27.181Z,5.38
2023-02-12T12:29:27.923Z,5.36
2023-02-12T12:32:01.651Z,5.49
2023-02-12T12:34:30.225Z,5.45
2023-02-12T12:37:40.673Z,5.34
2023-02-12T12:40:33.751Z,5.13
2023-02-12T12:43:14.328Z,5.05
2023-02-12T12:45:55.149Z,4.93
2023-02-12T12:48:56.005Z,4.79
2023-02-12T12:51:29.911Z,4.46
2023-02-12T12:54:21.741Z,4.43
2023-02-12T12:57:05.585Z,4.35
2023-02-12T13:00:13.073Z,4.30
2023-02-12T13:03:00.102Z,4.26
2023-02-12T13:06:06.978Z,4.18
2023-02-12T13:09:03.923Z,4.15
2023-02-12T13:11:48.889Z,4.06
2023-02-12T13:14:42.766Z,4.02
2023-02-12T13:17:25.275Z,3.90
2023-02-12T13:20:18.334Z,3.82
2023-02-12T13:22:59.825Z,3.73
2023-02-12T13:25:52.412Z,3.61
2023-02-12T13:28:31.332Z,3.45
2023-02-12T13:31:05.080Z,3.39
2023-02-12T13:33:50.884Z,3.37
2023-02-12T13:36:19.257Z,3.32
2023-02-12T13:39:04.635Z,3.28
2023-02-12T13:41:34.856Z,3.26
2023-02-12T13:44:08.969Z,3.22
2023-02-12T13:46:39.909Z,3.12
2023-02-12T13:49:18.116Z,3.05
2023-02-12T13:51:50.504Z,2.95
2023-02-12T13:55:00.239Z,2.82
2023-02-12T13:57:28.621Z,2.77
2023-02-12T13:59:58.394Z,2.71
2023-02-12T14:02:29.818Z,2.65
2023-02-12T14:05:00.988Z,2.67
2023-02-12T14:07:49.168Z,2.67
2023-02-12T14:10:37.308Z,2.68
2023-02-12T14:13:13.873Z,2.59
2023-02-12T14:15:58.290Z,2.58
2023-02-12T14:18:29.267Z,2.55
2023-02-12T14:21:29.863Z,2.52
2023-02-12T14:24:53.579Z,2.48
2023-02-12T14:27:42.334Z,2.42
2023-02-12T14:30:10.504Z,2.40
2023-02-12T14:32:55.574Z,2.38
2023-02-12T14:35:26.614Z,2.34
2023-02-12T14:37:57.752Z,2.28
2023-02-12T14:40:34.960Z,2.25
2023-02-12T14:43:22.153Z,2.21
2023-02-12T14:45:50.955Z,2.20
2023-02-12T14:48:41.362Z,2.18
2023-02-12T14:51:19.612Z,2.15
2023-02-12T14:53:50.593Z,2.08
2023-02-12T14:56:22.770Z,1.99
2023-02-12T14:58:54.420Z,1.97
2023-02-12T15:01:34.674Z,1.91
2023-02-12T15:04:30.597Z,1.86
2023-02-12T15:07:08.610Z,1.82
2023-02-12T15:10:10.222Z,1.74
2023-02-12T15:13:05.889Z,1.67
2023-02-12T15:15:39.887Z,1.60
2023-02-12T15:18:44.922Z,1.53
2023-02-12T15:21:27.940Z,1.46
2023-02-12T15:24:05.540Z,1.41
2023-02-12T15:26:41.410Z,1.34
2023-02-12T15:29:30.353Z,1.28
2023-02-12T15:32:03.171Z,1.22
2023-02-12T15:34:34.864Z,1.14
2023-02-12T15:37:05.624Z,1.07
2023-02-12T15:39:56.329Z,1.02
2023-02-12T15:42:36.073Z,0.97
2023-02-12T15:45:16.656Z,0.93
2023-02-12T15:47:54.842Z,0.88
2023-02-12T15:50:23.945Z,0.82
2023-02-12T15:52:53.115Z,0.77
2023-02-12T15:55:25.818Z,0.71
2023-02-12T15:58:00.345Z,0.66
2023-02-12T16:00:36.764Z,0.61
2023-02-12T16:03:04.985Z,0.54
2023-02-12T16:05:35.309Z,0.51
2023-02-12T16:08:04.106Z,0.48
2023-02-12T16:10:32.576Z,0.43
2023-02-12T16:13:01.156Z,0.39
2023-02-12T16:15:34.928Z,0.33
2023-02-12T16:18:05.285Z,0.27
2023-02-12T16:20:35.132Z,0.23
2023-02-12T16:23:07.536Z,0.21
2023-02-12T16:25:35.861Z,0.17
2023-02-12T16:28:07.400Z,0.13
2023-02-12T16:30:43.217Z,0.10
2023-02-12T16:33:34.779Z,0.07
2023-02-12T16:36:06.313Z,0.02
2023-02-12T16:38:46.608Z,-0.04
2023-02-12T16:41:20.904Z,-0.09
2023-02-12T16:44:11.299Z,-0.12
2023-02-12T16:46:48.769Z,-0.16
2023-02-12T16:49:19.074Z,-0.20
2023-02-12T16:51:48.533Z,-0.25
2023-02-12T16:54:26.009Z,-0.30
2023-02-12T16:56:55.213Z,-0.35
2023-02-12T16:59:23.352Z,-0.40
2023-02-12T17:02:03.987Z,-0.43
2023-02-12T17:04:32.324Z,-0.48
2023-02-12T17:07:00.595Z,-0.54
2023-02-12T17:09:30.408Z,-0.58
2023-02-12T17:11:58.582Z,-0.61
2023-02-12T17:14:26.758Z,-0.65
2023-02-12T17:16:54.955Z,-0.70
2023-02-12T17:19:23.308Z,-0.76
2023-02-12T17:21:52.202Z,-0.82
2023-02-12T17:24:26.520Z,-0.90
2023-02-12T17:26:55.828Z,-0.97
2023-02-12T17:29:25.454Z,-1.04
2023-02-12T17:31:54.175Z,-1.11
2023-02-12T17:34:23.497Z,-1.17
2023-02-12T17:36:53.207Z,-1.22
2023-02-12T17:39:21.503Z,-1.27
2023-02-12T17:41:49.995Z,-1.28
2023-02-12T17:44:18.131Z,-1.31
2023-02-12T17:46:47.064Z,-1.33
2023-02-12T17:49:15.423Z,-1.34
2023-02-12T17:51:43.694Z,-1.35
2023-02-12T17:54:12.503Z,-1.35
2023-02-12T17:56:40.962Z,-1.37
2023-02-12T17:59:10.568Z,-1.41
2023-02-12T18:01:40.002Z,-1.44
2023-02-12T18:04:08.262Z,-1.47
2023-02-12T18:06:36.400Z,-1.50
2023-02-12T18:09:04.595Z,-1.51
2023-02-12T18:11:33.285Z,-1.53
2023-02-12T18:14:02.622Z,-1.57
2023-02-12T18:16:33.144Z,-1.61
2023-02-12T18:19:04.545Z,-1.66
2023-02-12T18:21:35.173Z,-1.72
2023-02-12T18:24:03.560Z,-1.77
2023-02-12T18:26:32.166Z,-1.83
2023-02-12T18:29:01.250Z,-1.89
2023-02-12T18:31:29.711Z,-1.94
2023-02-12T18:33:58.210Z,-1.99
2023-02-12T18:36:26.692Z,-2.03
2023-02-12T18:38:54.968Z,-2.08
2023-02-12T18:41:25.818Z,-2.11
2023-02-12T18:43:55.095Z,-2.11
2023-02-12T18:46:26.985Z,-2.11
2023-02-12T18:48:56.269Z,-2.09
2023-02-12T18:51:27.995Z,-2.08
2023-02-12T18:54:01.939Z,-2.07
2023-02-12T18:56:33.582Z,-2.02
2023-02-12T18:59:05.072Z,-1.96
2023-02-12T19:01:34.849Z,-1.95
2023-02-12T19:04:06.405Z,-1.89
2023-02-12T19:06:40.000Z,-1.81
2023-02-12T19:09:09.613Z,-1.73
2023-02-12T19:11:37.959Z,-1.69
2023-02-12T19:14:06.370Z,-1.65
2023-02-12T19:16:34.853Z,-1.60
2023-02-12T19:19:03.228Z,-1.54
2023-02-12T19:21:31.823Z,-1.46
2023-02-12T19:24:02.187Z,-1.42
2023-02-12T19:26:31.790Z,-1.39
2023-02-12T19:29:00.846Z,-1.38
2023-02-12T19:31:33.077Z,-1.36
2023-02-12T19:34:14.735Z,-1.41
2023-02-12T19:36:43.776Z,-1.53
2023-02-12T19:39:17.852Z,-1.61
2023-02-12T19:41:47.272Z,-1.67
2023-02-12T19:44:19.253Z,-1.73
2023-02-12T19:46:49.070Z,-1.79
2023-02-12T19:49:20.809Z,-1.89
2023-02-12T19:51:49.795Z,-1.96
2023-02-12T19:54:20.127Z,-2.05
2023-02-12T19:56:49.240Z,-2.11
2023-02-12T19:59:22.123Z,-2.17
2023-02-12T20:01:50.695Z,-2.23
2023-02-12T20:04:21.546Z,-2.33
2023-02-12T20:06:51.572Z,-2.39
2023-02-12T20:09:21.384Z,-2.44
2023-02-12T20:11:50.960Z,-2.51
2023-02-12T20:14:22.886Z,-2.57
2023-02-12T20:16:53.984Z,-2.63
2023-02-12T20:19:28.593Z,-2.67
2023-02-12T20:21:58.072Z,-2.70
2023-02-12T20:24:29.697Z,-2.76
2023-02-12T20:26:59.481Z,-2.83
2023-02-12T20:29:28.174Z,-2.90
2023-02-12T20:31:57.199Z,-2.95
2023-02-12T20:34:26.243Z,-2.99
2023-02-12T20:36:54.426Z,-3.02
2023-02-12T20:39:23.227Z,-3.05
2023-02-12T20:41:52.412Z,-3.06
2023-02-12T20:44:22.019Z,-3.08
2023-02-12T20:46:56.114Z,-3.12
2023-02-12T20:49:26.972Z,-3.16
2023-02-12T20:51:55.562Z,-3.19
2023-02-12T20:54:25.130Z,-3.21
2023-02-12T20:56:53.329Z,-3.22
2023-02-12T20:59:21.511Z,-3.23
2023-02-12T21:01:49.996Z,-3.23
2023-02-12T21:04:19.737Z,-3.22
2023-02-12T21:06:48.767Z,-3.23
2023-02-12T21:09:19.143Z,-3.29
2023-02-12T21:11:48.303Z,-3.33
2023-02-12T21:14:22.626Z,-3.39
2023-02-12T21:17:10.049Z,-3.46
2023-02-12T21:19:38.832Z,-3.46
2023-02-12T21:22:08.546Z,-3.30
2023-02-12T21:24:36.921Z,-3.30
2023-02-12T21:27:05.223Z,-3.30
2023-02-12T21:29:33.590Z,-3.30
2023-02-12T21:32:07.908Z,-3.24
2023-02-12T21:34:36.471Z,-3.13
2023-02-12T21:37:04.645Z,-3.02
2023-02-12T21:39:32.939Z,-2.98
2023-02-12T21:42:03.642Z,-2.87
2023-02-12T21:44:35.475Z,-2.80
2023-02-12T21:47:04.469Z,-2.76
2023-02-12T21:49:32.685Z,-2.71
2023-02-12T21:52:02.915Z,-2.68
2023-02-12T21:54:31.786Z,-2.67
2023-02-12T21:57:01.099Z,-2.68
2023-02-12T21:59:31.940Z,-2.69
2023-02-12T22:02:02.063Z,-2.73
2023-02-12T22:04:30.678Z,-2.78
2023-02-12T22:07:03.392Z,-2.82
2023-02-12T22:09:32.399Z,-2.84
2023-02-12T22:12:00.793Z,-2.86
2023-02-12T22:14:29.165Z,-2.85
2023-02-12T22:16:58.044Z,-2.82
2023-02-12T22:19:26.219Z,-2.81
2023-02-12T22:21:54.605Z,-2.75
2023-02-12T22:24:22.770Z,-2.69
2023-02-12T22:26:51.044Z,-2.67
2023-02-12T22:29:19.324Z,-2.66
2023-02-12T22:31:47.914Z,-2.66
2023-02-12T22:34:19.239Z,-2.61
2023-02-12T22:36:48.056Z,-2.57
2023-02-12T22:39:17.816Z,-2.65
2023-02-12T22:41:46.365Z,-2.78
2023-02-12T22:44:16.114Z,-2.87
2023-02-12T22:46:44.931Z,-2.83
2023-02-12T22:49:14.143Z,-2.74
2023-02-12T22:51:42.809Z,-2.72
2023-02-12T22:54:16.938Z,-2.78
2023-02-12T22:56:45.816Z,-2.85
2023-02-12T22:59:13.998Z,-2.96
2023-02-12T23:01:42.470Z,-3.06
2023-02-12T23:04:16.704Z,-3.18
2023-02-12T23:06:45.777Z,-3.33
2023-02-12T23:09:17.874Z,-3.48
2023-02-12T23:11:46.849Z,-3.54
2023-02-12T23:14:15.184Z,-3.55
2023-02-12T23:16:43.654Z,-3.54
2023-02-12T23:19:12.293Z,-3.59
2023-02-12T23:21:40.770Z,-3.65
2023-02-12T23:24:13.347Z,-3.72
2023-02-12T23:26:41.625Z,-3.80
2023-02-12T23:29:10.108Z,-3.95
2023-02-12T23:31:38.572Z,-4.08
2023-02-12T23:34:06.972Z,-4.18
2023-02-12T23:36:35.396Z,-4.25
2023-02-12T23:39:06.013Z,-4.28
2023-02-12T23:41:35.088Z,-4.32
2023-02-12T23:44:03.897Z,-4.37
2023-02-12T23:46:32.350Z,-4.43
2023-02-12T23:49:00.630Z,-4.50
2023-02-12T23:51:29.214Z,-4.55
2023-02-12T23:53:57.593Z,-4.63
2023-02-12T23:56:26.994Z,-4.71
2023-02-12T23:58:57.326Z,-4.80
